Cruger, Mississippi
Current Conditions -  °F | °C
As of 10:35 AM on Wednesday 22 Oct 2014 (Local Time) from KRNV Reporting Station
Clear Clear  
Wind Chill: 65°   Ceiling: Unl
Heat Index: 65°   Visibility: 10mi
Dew Point: 51°   Wind: 10mph
Humidity: 62%   Direction: 70°ENE
Pressure: 30.22"   Gusts: NA
Location:  33.32°N, 90.23°W
Report Text: KRNV 221535Z AUTO 07009KT 10SM CLR 18/11 A3022 RMK AO2 T01810107
Loading
Personal Weather Stations






























Interactive Weather Map
Tropical Storm Tracking
New forecast layout! Learn more

10-Day Weather Forecast

Advertisements
Track Severe Weather on mobile